sensor_id;sensor_type;location;lat;lon;timestamp;pressure;altitude;pressure_sealevel;temperature;humidity
61337;BME280;47212;41.326;2.104;2023-02-16T00:03:35;102875.19;;;10.50;67.27
61337;BME280;47212;41.326;2.104;2023-02-16T00:08:37;102867.66;;;10.46;66.85
61337;BME280;47212;41.326;2.104;2023-02-16T00:13:39;102869.97;;;10.42;67.14
61337;BME280;47212;41.326;2.104;2023-02-16T00:18:57;102861.75;;;10.36;67.71
61337;BME280;47212;41.326;2.104;2023-02-16T00:24:03;102862.59;;;10.30;67.60
61337;BME280;47212;41.326;2.104;2023-02-16T00:29:06;102859.66;;;10.25;66.99
61337;BME280;47212;41.326;2.104;2023-02-16T00:34:30;102858.78;;;10.17;67.80
61337;BME280;47212;41.326;2.104;2023-02-16T00:39:34;102861.31;;;10.12;67.35
61337;BME280;47212;41.326;2.104;2023-02-16T00:44:46;102858.56;;;10.06;67.55
61337;BME280;47212;41.326;2.104;2023-02-16T00:49:51;102862.97;;;10.00;67.75
61337;BME280;47212;41.326;2.104;2023-02-16T00:54:54;102849.13;;;9.95;67.67
61337;BME280;47212;41.326;2.104;2023-02-16T01:05:35;102842.00;;;9.74;68.16
61337;BME280;47212;41.326;2.104;2023-02-16T01:10:39;102837.78;;;9.72;68.64
61337;BME280;47212;41.326;2.104;2023-02-16T01:15:53;102839.25;;;9.68;68.40
61337;BME280;47212;41.326;2.104;2023-02-16T01:20:55;102830.88;;;9.63;68.88
61337;BME280;47212;41.326;2.104;2023-02-16T01:25:59;102836.50;;;9.54;69.15
61337;BME280;47212;41.326;2.104;2023-02-16T01:31:04;102841.09;;;9.54;68.97
61337;BME280;47212;41.326;2.104;2023-02-16T01:36:27;102829.97;;;9.49;70.00
61337;BME280;47212;41.326;2.104;2023-02-16T01:52:42;102825.13;;;9.38;69.90
61337;BME280;47212;41.326;2.104;2023-02-16T01:57:49;102823.44;;;9.37;70.24
61337;BME280;47212;41.326;2.104;2023-02-16T02:05:24;102816.75;;;9.39;70.52
61337;BME280;47212;41.326;2.104;2023-02-16T02:11:06;102817.59;;;9.40;71.01
61337;BME280;47212;41.326;2.104;2023-02-16T02:16:11;102819.47;;;9.39;69.72
61337;BME280;47212;41.326;2.104;2023-02-16T02:27:33;102806.72;;;9.40;69.83
61337;BME280;47212;41.326;2.104;2023-02-16T02:38:15;102818.22;;;9.35;69.22
61337;BME280;47212;41.326;2.104;2023-02-16T02:48:33;102807.94;;;9.31;69.29
61337;BME280;47212;41.326;2.104;2023-02-16T02:53:50;102797.91;;;9.31;69.53
61337;BME280;47212;41.326;2.104;2023-02-16T02:59:18;102797.91;;;9.31;69.72
61337;BME280;47212;41.326;2.104;2023-02-16T03:04:39;102804.81;;;9.27;69.76
61337;BME280;47212;41.326;2.104;2023-02-16T03:09:42;102797.91;;;9.24;70.01
61337;BME280;47212;41.326;2.104;2023-02-16T03:14:50;102799.34;;;9.20;69.84
61337;BME280;47212;41.326;2.104;2023-02-16T03:19:55;102795.16;;;9.18;69.77
61337;BME280;47212;41.326;2.104;2023-02-16T03:25:19;102803.72;;;9.15;68.93
61337;BME280;47212;41.326;2.104;2023-02-16T03:30:42;102812.25;;;9.12;68.35
61337;BME280;47212;41.326;2.104;2023-02-16T03:35:46;102804.72;;;9.07;67.98
61337;BME280;47212;41.326;2.104;2023-02-16T03:40:49;102815.34;;;9.02;67.84
61337;BME280;47212;41.326;2.104;2023-02-16T03:46:00;102813.25;;;8.98;68.11
61337;BME280;47212;41.326;2.104;2023-02-16T03:51:05;102803.19;;;8.91;67.86
61337;BME280;47212;41.326;2.104;2023-02-16T03:56:08;102813.81;;;8.86;67.85
61337;BME280;47212;41.326;2.104;2023-02-16T04:01:12;102813.97;;;8.78;67.46
61337;BME280;47212;41.326;2.104;2023-02-16T04:06:14;102815.81;;;8.71;67.70
61337;BME280;47212;41.326;2.104;2023-02-16T04:11:16;102813.41;;;8.61;67.85
61337;BME280;47212;41.326;2.104;2023-02-16T04:16:37;102807.94;;;8.55;68.04
61337;BME280;47212;41.326;2.104;2023-02-16T04:21:39;102801.25;;;8.51;68.08
61337;BME280;47212;41.326;2.104;2023-02-16T04:26:41;102802.03;;;8.45;68.84
61337;BME280;47212;41.326;2.104;2023-02-16T04:31:43;102812.00;;;8.38;68.61
61337;BME280;47212;41.326;2.104;2023-02-16T04:36:46;102806.31;;;8.32;68.93
61337;BME280;47212;41.326;2.104;2023-02-16T04:41:48;102804.38;;;8.26;69.06
61337;BME280;47212;41.326;2.104;2023-02-16T04:46:49;102805.59;;;8.24;68.44
61337;BME280;47212;41.326;2.104;2023-02-16T04:51:52;102806.84;;;8.21;68.96
61337;BME280;47212;41.326;2.104;2023-02-16T04:56:55;102807.22;;;8.18;68.83
61337;BME280;47212;41.326;2.104;2023-02-16T05:34:27;102826.47;;;8.23;66.15
61337;BME280;47212;41.326;2.104;2023-02-16T05:39:29;102834.75;;;8.15;66.63
61337;BME280;47212;41.326;2.104;2023-02-16T05:44:40;102832.63;;;8.11;67.00
61337;BME280;47212;41.326;2.104;2023-02-16T05:49:43;102834.63;;;8.02;67.29
61337;BME280;47212;41.326;2.104;2023-02-16T05:54:45;102832.31;;;7.99;67.34
61337;BME280;47212;41.326;2.104;2023-02-16T05:59:47;102831.41;;;7.92;68.36
61337;BME280;47212;41.326;2.104;2023-02-16T06:04:49;102837.78;;;7.84;68.22
61337;BME280;47212;41.326;2.104;2023-02-16T06:09:51;102837.34;;;7.81;68.40
61337;BME280;47212;41.326;2.104;2023-02-16T06:14:53;102841.44;;;7.77;69.30
61337;BME280;47212;41.326;2.104;2023-02-16T06:19:56;102842.28;;;7.77;68.74
61337;BME280;47212;41.326;2.104;2023-02-16T06:25:01;102840.16;;;7.73;69.54
61337;BME280;47212;41.326;2.104;2023-02-16T06:30:03;102853.06;;;7.71;69.47
61337;BME280;47212;41.326;2.104;2023-02-16T06:35:08;102850.34;;;7.71;69.21
61337;BME280;47212;41.326;2.104;2023-02-16T06:40:19;102851.38;;;7.70;68.29
61337;BME280;47212;41.326;2.104;2023-02-16T06:45:24;102863.44;;;7.67;68.22
61337;BME280;47212;41.326;2.104;2023-02-16T06:50:26;102865.88;;;7.62;68.20
61337;BME280;47212;41.326;2.104;2023-02-16T06:55:29;102880.47;;;7.61;68.35
61337;BME280;47212;41.326;2.104;2023-02-16T07:00:37;102888.78;;;7.59;68.11
61337;BME280;47212;41.326;2.104;2023-02-16T07:05:39;102883.81;;;7.63;68.37
61337;BME280;47212;41.326;2.104;2023-02-16T07:10:45;102892.41;;;7.66;67.33
61337;BME280;47212;41.326;2.104;2023-02-16T07:15:51;102905.59;;;7.70;66.84
61337;BME280;47212;41.326;2.104;2023-02-16T07:20:53;102914.19;;;7.73;66.45
61337;BME280;47212;41.326;2.104;2023-02-16T07:25:55;102909.88;;;7.79;65.98
61337;BME280;47212;41.326;2.104;2023-02-16T07:31:04;102917.91;;;7.87;66.15
61337;BME280;47212;41.326;2.104;2023-02-16T07:36:07;102925.94;;;7.95;65.02
61337;BME280;47212;41.326;2.104;2023-02-16T07:41:12;102934.97;;;8.02;65.04
61337;BME280;47212;41.326;2.104;2023-02-16T07:46:18;102934.84;;;8.10;65.39
61337;BME280;47212;41.326;2.104;2023-02-16T07:51:26;102931.38;;;8.16;65.87
61337;BME280;47212;41.326;2.104;2023-02-16T07:56:31;102948.94;;;8.20;65.18
61337;BME280;47212;41.326;2.104;2023-02-16T08:01:33;102948.81;;;8.28;65.25
61337;BME280;47212;41.326;2.104;2023-02-16T08:06:35;102957.50;;;8.39;65.68
61337;BME280;47212;41.326;2.104;2023-02-16T08:11:38;102965.13;;;8.50;64.85
61337;BME280;47212;41.326;2.104;2023-02-16T08:16:41;102961.63;;;8.56;65.59
61337;BME280;47212;41.326;2.104;2023-02-16T08:21:47;102961.31;;;8.66;65.01
61337;BME280;47212;41.326;2.104;2023-02-16T08:26:52;102960.16;;;8.75;64.37
61337;BME280;47212;41.326;2.104;2023-02-16T08:32:01;102965.25;;;8.84;64.41
61337;BME280;47212;41.326;2.104;2023-02-16T08:37:13;102968.66;;;8.93;63.73
61337;BME280;47212;41.326;2.104;2023-02-16T08:42:15;102977.72;;;9.00;63.75
61337;BME280;47212;41.326;2.104;2023-02-16T08:47:18;102975.47;;;9.10;62.71
61337;BME280;47212;41.326;2.104;2023-02-16T08:52:21;102982.88;;;9.23;62.89
61337;BME280;47212;41.326;2.104;2023-02-16T08:57:23;102975.66;;;9.37;62.00
61337;BME280;47212;41.326;2.104;2023-02-16T09:02:25;102982.84;;;9.51;61.86
61337;BME280;47212;41.326;2.104;2023-02-16T09:07:31;102986.50;;;9.65;61.35
61337;BME280;47212;41.326;2.104;2023-02-16T09:12:36;102991.81;;;9.79;60.70
61337;BME280;47212;41.326;2.104;2023-02-16T09:17:38;102984.75;;;9.92;60.77
61337;BME280;47212;41.326;2.104;2023-02-16T09:22:44;102988.97;;;10.07;60.06
61337;BME280;47212;41.326;2.104;2023-02-16T09:27:50;102999.94;;;10.20;59.89
61337;BME280;47212;41.326;2.104;2023-02-16T09:32:53;102999.13;;;10.27;59.64
61337;BME280;47212;41.326;2.104;2023-02-16T09:37:56;102998.72;;;10.30;59.74
61337;BME280;47212;41.326;2.104;2023-02-16T09:53:34;103015.72;;;10.45;58.00
61337;BME280;47212;41.326;2.104;2023-02-16T10:09:31;103015.75;;;10.58;58.69
61337;BME280;47212;41.326;2.104;2023-02-16T10:14:42;103031.69;;;10.61;57.64
61337;BME280;47212;41.326;2.104;2023-02-16T10:19:56;103041.72;;;10.54;58.52
61337;BME280;47212;41.326;2.104;2023-02-16T10:30:20;103044.03;;;10.57;58.32
61337;BME280;47212;41.326;2.104;2023-02-16T10:35:48;103041.13;;;10.65;58.36
61337;BME280;47212;41.326;2.104;2023-02-16T10:41:06;103045.31;;;10.74;57.95
61337;BME280;47212;41.326;2.104;2023-02-16T10:46:19;103040.72;;;10.81;57.77
61337;BME280;47212;41.326;2.104;2023-02-16T10:51:31;103037.78;;;10.90;57.89
61337;BME280;47212;41.326;2.104;2023-02-16T10:57:00;103045.75;;;10.98;57.21
61337;BME280;47212;41.326;2.104;2023-02-16T11:02:27;103041.56;;;11.08;57.18
61337;BME280;47212;41.326;2.104;2023-02-16T11:07:54;103038.63;;;11.16;57.75
61337;BME280;47212;41.326;2.104;2023-02-16T11:12:57;103040.72;;;11.21;57.92
61337;BME280;47212;41.326;2.104;2023-02-16T11:18:36;103026.47;;;11.26;57.37
61337;BME280;47212;41.326;2.104;2023-02-16T11:23:42;103022.72;;;11.33;57.90
61337;BME280;47212;41.326;2.104;2023-02-16T11:28:46;103021.44;;;11.42;57.06
61337;BME280;47212;41.326;2.104;2023-02-16T11:39:06;103008.16;;;11.66;57.14
61337;BME280;47212;41.326;2.104;2023-02-16T11:54:47;103009.91;;;12.11;55.96
61337;BME280;47212;41.326;2.104;2023-02-16T11:59:50;103010.22;;;12.35;56.64
61337;BME280;47212;41.326;2.104;2023-02-16T12:10:30;102995.69;;;12.72;55.11
61337;BME280;47212;41.326;2.104;2023-02-16T12:15:45;102988.44;;;12.85;55.45
61337;BME280;47212;41.326;2.104;2023-02-16T12:21:35;102982.59;;;13.06;55.58
61337;BME280;47212;41.326;2.104;2023-02-16T12:53:33;102934.06;;;14.53;56.59
61337;BME280;47212;41.326;2.104;2023-02-16T12:58:43;102929.72;;;14.75;56.12
61337;BME280;47212;41.326;2.104;2023-02-16T13:04:05;102926.13;;;15.10;56.48
61337;BME280;47212;41.326;2.104;2023-02-16T13:09:31;102922.41;;;15.27;56.64
61337;BME280;47212;41.326;2.104;2023-02-16T13:14:40;102915.38;;;15.32;56.20
61337;BME280;47212;41.326;2.104;2023-02-16T13:19:46;102910.97;;;15.19;56.63
61337;BME280;47212;41.326;2.104;2023-02-16T13:31:08;102910.66;;;14.92;56.74
61337;BME280;47212;41.326;2.104;2023-02-16T13:46:44;102884.38;;;14.61;58.43
61337;BME280;47212;41.326;2.104;2023-02-16T13:51:54;102885.31;;;14.43;59.05
61337;BME280;47212;41.326;2.104;2023-02-16T13:57:00;102881.19;;;14.22;60.31
61337;BME280;47212;41.326;2.104;2023-02-16T14:02:11;102884.75;;;14.11;60.09
61337;BME280;47212;41.326;2.104;2023-02-16T14:12:29;102887.19;;;13.89;61.09
61337;BME280;47212;41.326;2.104;2023-02-16T14:17:42;102878.06;;;13.77;61.85
61337;BME280;47212;41.326;2.104;2023-02-16T14:22:58;102884.31;;;13.66;61.66
61337;BME280;47212;41.326;2.104;2023-02-16T14:38:50;102874.84;;;13.80;62.45
61337;BME280;47212;41.326;2.104;2023-02-16T14:44:10;102877.13;;;13.83;62.92
61337;BME280;47212;41.326;2.104;2023-02-16T15:00:20;102867.91;;;13.96;62.34
61337;BME280;47212;41.326;2.104;2023-02-16T15:05:31;102868.16;;;13.94;62.43
61337;BME280;47212;41.326;2.104;2023-02-16T15:10:42;102865.66;;;13.93;62.51
61337;BME280;47212;41.326;2.104;2023-02-16T15:15:56;102866.84;;;13.97;62.83
61337;BME280;47212;41.326;2.104;2023-02-16T15:20:59;102863.88;;;13.98;62.76
61337;BME280;47212;41.326;2.104;2023-02-16T15:26:04;102871.97;;;13.93;63.33
61337;BME280;47212;41.326;2.104;2023-02-16T15:31:16;102871.66;;;13.83;64.35
61337;BME280;47212;41.326;2.104;2023-02-16T15:36:23;102878.97;;;13.71;64.13
61337;BME280;47212;41.326;2.104;2023-02-16T15:41:34;102871.56;;;13.60;63.98
61337;BME280;47212;41.326;2.104;2023-02-16T15:46:38;102872.38;;;13.60;64.19
61337;BME280;47212;41.326;2.104;2023-02-16T15:51:41;102881.53;;;13.54;65.06
61337;BME280;47212;41.326;2.104;2023-02-16T15:56:47;102874.78;;;13.38;67.04
61337;BME280;47212;41.326;2.104;2023-02-16T16:01:57;102878.56;;;13.37;66.00
61337;BME280;47212;41.326;2.104;2023-02-16T16:07:06;102879.34;;;13.26;65.76
61337;BME280;47212;41.326;2.104;2023-02-16T16:12:12;102876.22;;;13.23;65.71
61337;BME280;47212;41.326;2.104;2023-02-16T16:17:17;102881.84;;;13.28;66.31
61337;BME280;47212;41.326;2.104;2023-02-16T16:22:36;102892.63;;;13.23;66.43
61337;BME280;47212;41.326;2.104;2023-02-16T16:27:46;102885.88;;;13.25;67.07
61337;BME280;47212;41.326;2.104;2023-02-16T16:33:07;102890.50;;;13.25;67.21
61337;BME280;47212;41.326;2.104;2023-02-16T16:38:27;102891.19;;;13.20;67.17
61337;BME280;47212;41.326;2.104;2023-02-16T16:43:35;102890.59;;;13.18;67.61
61337;BME280;47212;41.326;2.104;2023-02-16T16:48:42;102887.44;;;13.15;67.31
61337;BME280;47212;41.326;2.104;2023-02-16T16:58:53;102892.47;;;12.93;67.97
61337;BME280;47212;41.326;2.104;2023-02-16T17:03:58;102898.84;;;12.87;68.32
61337;BME280;47212;41.326;2.104;2023-02-16T17:09:00;102895.94;;;12.82;68.72
61337;BME280;47212;41.326;2.104;2023-02-16T17:14:15;102899.97;;;12.79;69.65
61337;BME280;47212;41.326;2.104;2023-02-16T17:19:20;102911.13;;;12.77;69.26
61337;BME280;47212;41.326;2.104;2023-02-16T17:24:22;102917.03;;;12.74;69.51
61337;BME280;47212;41.326;2.104;2023-02-16T17:29:27;102911.41;;;12.69;69.92
61337;BME280;47212;41.326;2.104;2023-02-16T17:34:33;102917.53;;;12.65;69.79
61337;BME280;47212;41.326;2.104;2023-02-16T17:39:38;102917.16;;;12.61;71.25
61337;BME280;47212;41.326;2.104;2023-02-16T17:44:40;102914.25;;;12.56;71.20
61337;BME280;47212;41.326;2.104;2023-02-16T17:49:43;102920.16;;;12.53;71.57
61337;BME280;47212;41.326;2.104;2023-02-16T17:54:45;102927.75;;;12.51;71.66
61337;BME280;47212;41.326;2.104;2023-02-16T17:59:49;102923.78;;;12.47;71.78
61337;BME280;47212;41.326;2.104;2023-02-16T18:04:52;102930.75;;;12.43;71.77
61337;BME280;47212;41.326;2.104;2023-02-16T18:09:55;102931.19;;;12.40;72.21
61337;BME280;47212;41.326;2.104;2023-02-16T18:14:57;102930.81;;;12.36;72.32
61337;BME280;47212;41.326;2.104;2023-02-16T18:20:02;102936.09;;;12.31;73.20
61337;BME280;47212;41.326;2.104;2023-02-16T18:25:06;102945.56;;;12.29;72.94
61337;BME280;47212;41.326;2.104;2023-02-16T18:30:09;102947.91;;;12.25;73.02
61337;BME280;47212;41.326;2.104;2023-02-16T18:35:17;102946.44;;;12.23;72.51
61337;BME280;47212;41.326;2.104;2023-02-16T18:40:19;102950.66;;;12.19;72.94
61337;BME280;47212;41.326;2.104;2023-02-16T18:45:22;102957.41;;;12.16;72.58
61337;BME280;47212;41.326;2.104;2023-02-16T18:50:25;102962.44;;;12.12;73.71
61337;BME280;47212;41.326;2.104;2023-02-16T18:55:27;102962.88;;;12.09;73.39
61337;BME280;47212;41.326;2.104;2023-02-16T19:00:33;102963.09;;;12.08;73.19
61337;BME280;47212;41.326;2.104;2023-02-16T19:05:36;102960.78;;;12.05;73.53
61337;BME280;47212;41.326;2.104;2023-02-16T19:10:38;102960.19;;;12.03;75.24
61337;BME280;47212;41.326;2.104;2023-02-16T19:15:40;102963.75;;;12.03;73.28
61337;BME280;47212;41.326;2.104;2023-02-16T19:20:42;102969.63;;;12.00;73.61
61337;BME280;47212;41.326;2.104;2023-02-16T19:25:46;102971.75;;;11.98;73.46
61337;BME280;47212;41.326;2.104;2023-02-16T19:30:49;102975.13;;;11.94;73.68
61337;BME280;47212;41.326;2.104;2023-02-16T19:35:58;102977.47;;;11.90;75.25
61337;BME280;47212;41.326;2.104;2023-02-16T19:41:11;102982.28;;;11.88;73.69
61337;BME280;47212;41.326;2.104;2023-02-16T19:46:14;102981.06;;;11.84;73.35
61337;BME280;47212;41.326;2.104;2023-02-16T19:51:16;102985.25;;;11.80;73.70
61337;BME280;47212;41.326;2.104;2023-02-16T19:56:22;102986.94;;;11.74;74.35
61337;BME280;47212;41.326;2.104;2023-02-16T20:01:30;102992.81;;;11.71;74.11
61337;BME280;47212;41.326;2.104;2023-02-16T20:06:34;102991.38;;;11.69;74.17
61337;BME280;47212;41.326;2.104;2023-02-16T20:11:42;102996.19;;;11.67;74.31
61337;BME280;47212;41.326;2.104;2023-02-16T20:16:44;102999.34;;;11.64;75.30
61337;BME280;47212;41.326;2.104;2023-02-16T20:21:46;103011.13;;;11.58;73.71
61337;BME280;47212;41.326;2.104;2023-02-16T20:26:48;103012.63;;;11.47;73.73
61337;BME280;47212;41.326;2.104;2023-02-16T20:31:54;103006.56;;;11.38;74.41
61337;BME280;47212;41.326;2.104;2023-02-16T20:36:57;103014.31;;;11.28;73.71
61337;BME280;47212;41.326;2.104;2023-02-16T20:41:59;103012.00;;;11.18;73.56
61337;BME280;47212;41.326;2.104;2023-02-16T20:47:02;103019.56;;;11.10;73.55
61337;BME280;47212;41.326;2.104;2023-02-16T20:52:08;103026.69;;;11.04;73.59
61337;BME280;47212;41.326;2.104;2023-02-16T20:57:11;103030.66;;;10.95;73.69
61337;BME280;47212;41.326;2.104;2023-02-16T21:02:27;103034.84;;;10.84;73.93
61337;BME280;47212;41.326;2.104;2023-02-16T21:07:29;103040.31;;;10.78;73.32
61337;BME280;47212;41.326;2.104;2023-02-16T21:12:31;103039.66;;;10.69;73.56
61337;BME280;47212;41.326;2.104;2023-02-16T21:17:33;103031.47;;;10.63;73.00
61337;BME280;47212;41.326;2.104;2023-02-16T21:22:35;103036.91;;;10.56;72.98
61337;BME280;47212;41.326;2.104;2023-02-16T21:27:38;103043.38;;;10.48;72.76
61337;BME280;47212;41.326;2.104;2023-02-16T21:32:43;103030.81;;;10.41;73.25
61337;BME280;47212;41.326;2.104;2023-02-16T21:37:45;103032.22;;;10.37;72.70
61337;BME280;47212;41.326;2.104;2023-02-16T21:42:47;103033.28;;;10.36;72.76
61337;BME280;47212;41.326;2.104;2023-02-16T21:47:49;103034.94;;;10.30;73.56
61337;BME280;47212;41.326;2.104;2023-02-16T21:53:09;103031.16;;;10.25;73.62
61337;BME280;47212;41.326;2.104;2023-02-16T21:58:11;103034.66;;;10.18;73.13
61337;BME280;47212;41.326;2.104;2023-02-16T22:03:19;103028.78;;;10.15;73.73
61337;BME280;47212;41.326;2.104;2023-02-16T22:08:21;103030.22;;;10.11;73.27
61337;BME280;47212;41.326;2.104;2023-02-16T22:13:34;103031.00;;;9.98;73.71
61337;BME280;47212;41.326;2.104;2023-02-16T22:18:37;103032.66;;;9.93;73.49
61337;BME280;47212;41.326;2.104;2023-02-16T22:23:40;103029.91;;;9.86;73.61
61337;BME280;47212;41.326;2.104;2023-02-16T22:28:43;103047.03;;;9.80;73.23
61337;BME280;47212;41.326;2.104;2023-02-16T22:34:01;103045.97;;;9.74;73.54
61337;BME280;47212;41.326;2.104;2023-02-16T22:39:04;103043.84;;;9.70;73.45
61337;BME280;47212;41.326;2.104;2023-02-16T22:44:09;103052.81;;;9.64;73.22
61337;BME280;47212;41.326;2.104;2023-02-16T22:49:11;103045.44;;;9.57;73.16
61337;BME280;47212;41.326;2.104;2023-02-16T22:54:17;103035.53;;;9.50;73.60
61337;BME280;47212;41.326;2.104;2023-02-16T22:59:19;103033.00;;;9.48;73.23
61337;BME280;47212;41.326;2.104;2023-02-16T23:04:21;103035.28;;;9.45;73.37
61337;BME280;47212;41.326;2.104;2023-02-16T23:09:23;103032.97;;;9.42;73.47
61337;BME280;47212;41.326;2.104;2023-02-16T23:14:29;103043.81;;;9.35;73.07
61337;BME280;47212;41.326;2.104;2023-02-16T23:19:31;103038.72;;;9.25;72.94
61337;BME280;47212;41.326;2.104;2023-02-16T23:24:34;103049.94;;;9.16;73.24
61337;BME280;47212;41.326;2.104;2023-02-16T23:29:36;103043.59;;;9.09;74.00
61337;BME280;47212;41.326;2.104;2023-02-16T23:34:38;103037.72;;;9.05;73.19
61337;BME280;47212;41.326;2.104;2023-02-16T23:40:06;103035.59;;;9.01;72.58
61337;BME280;47212;41.326;2.104;2023-02-16T23:45:08;103041.03;;;9.01;72.97
61337;BME280;47212;41.326;2.104;2023-02-16T23:50:11;103035.19;;;9.04;72.74
61337;BME280;47212;41.326;2.104;2023-02-16T23:55:13;103036.22;;;9.03;73.18
